Time;durP1;ratioP1;P1;durP2;ratioP2;P2;SDS_P1;SDS_P2;PMS_P1;PMS_P2;Temp;Humidity;BMP_temperature;BMP_pressure;BME280_temperature;BME280_humidity;BME280_pressure;Samples;Min_cycle;Max_cycle;Signal;HPM_P1;HPM_P2
2022/04/17 00:00:00;;;;;;;6.67;4.20;;;8.20;53.20;;;;;;5032864;28;20412;-79
2022/04/17 00:02:27;;;;;;;6.57;3.90;;;8.20;53.20;;;;;;5032935;28;20470;-78
2022/04/17 00:04:53;;;;;;;7.00;3.70;;;8.20;53.20;;;;;;5034805;28;20503;-78
2022/04/17 00:07:19;;;;;;;5.27;3.37;;;8.20;53.30;;;;;;5032144;28;20459;-79
2022/04/17 00:09:44;;;;;;;7.03;4.37;;;8.20;53.60;;;;;;5034468;28;20485;-79
2022/04/17 00:12:11;;;;;;;5.90;3.83;;;8.10;53.70;;;;;;5030706;28;20432;-78
2022/04/17 00:14:37;;;;;;;4.97;4.03;;;8.10;54.10;;;;;;5036897;28;20275;-78
2022/04/17 00:17:03;;;;;;;5.00;3.50;;;8.00;54.10;;;;;;5026367;28;20482;-77
2022/04/17 00:19:29;;;;;;;5.23;3.50;;;8.00;54.10;;;;;;5033599;28;20959;-80
2022/04/17 00:21:55;;;;;;;5.97;3.90;;;7.90;54.20;;;;;;5032697;28;20463;-78
2022/04/17 00:24:21;;;;;;;5.87;3.70;;;7.80;54.80;;;;;;5038069;28;20764;-80
2022/04/17 00:26:46;;;;;;;5.40;3.70;;;7.70;55.00;;;;;;5036826;28;20338;-80
2022/04/17 00:29:12;;;;;;;4.40;3.63;;;7.70;56.50;;;;;;5037235;28;20188;-78
2022/04/17 00:31:38;;;;;;;8.67;3.87;;;7.60;56.90;;;;;;5041617;28;20181;-80
2022/04/17 00:34:04;;;;;;;8.40;4.47;;;7.50;57.20;;;;;;5040902;28;20195;-77
2022/04/17 00:36:30;;;;;;;6.37;3.77;;;7.40;57.40;;;;;;5042375;28;20213;-78
2022/04/17 00:38:55;;;;;;;6.23;3.90;;;7.30;57.80;;;;;;5043033;28;20189;-78
2022/04/17 00:41:21;;;;;;;6.17;3.67;;;7.30;58.50;;;;;;5049531;28;20431;-78
2022/04/17 00:43:48;;;;;;;5.80;3.67;;;7.20;59.10;;;;;;5049683;28;20177;-78
2022/04/17 00:46:15;;;;;;;5.07;3.83;;;7.20;59.10;;;;;;5037388;28;20648;-79
2022/04/17 00:48:41;;;;;;;12.83;4.23;;;7.10;59.30;;;;;;5040975;28;20976;-79
2022/04/17 00:51:08;;;;;;;6.40;4.13;;;7.10;59.30;;;;;;5041856;28;20424;-78
2022/04/17 00:53:35;;;;;;;6.07;4.13;;;7.00;59.90;;;;;;5044399;28;20471;-79
2022/04/17 00:56:02;;;;;;;4.93;3.10;;;7.00;59.90;;;;;;5050009;28;20438;-78
2022/04/17 00:58:31;;;;;;;5.97;3.70;;;6.90;59.60;;;;;;5041669;28;20442;-80
2022/04/17 01:00:57;;;;;;;10.93;4.10;;;6.90;59.90;;;;;;5048808;28;20435;-78
2022/04/17 01:03:23;;;;;;;7.27;3.73;;;6.90;60.40;;;;;;5041216;28;20460;-79
2022/04/17 01:05:49;;;;;;;6.93;4.37;;;6.80;60.70;;;;;;5042752;28;20783;-79
2022/04/17 01:08:15;;;;;;;6.90;4.20;;;6.70;61.50;;;;;;5038261;28;20427;-79
2022/04/17 01:10:41;;;;;;;7.30;4.40;;;6.70;61.60;;;;;;5038260;28;20503;-78
2022/04/17 01:13:10;;;;;;;6.20;3.90;;;6.70;61.60;;;;;;5034079;28;20424;-78
2022/04/17 01:15:37;;;;;;;5.23;3.57;;;6.70;61.90;;;;;;5035035;28;20644;-78
2022/04/17 01:18:03;;;;;;;7.27;3.97;;;6.60;61.90;;;;;;5031854;28;20436;-79
2022/04/17 01:20:29;;;;;;;5.07;3.60;;;6.60;62.20;;;;;;5033620;28;20420;-79
2022/04/17 01:26:56;;;;;;;6.83;3.97;;;6.50;62.20;;;;;;5037892;28;20455;-79
2022/04/17 01:28:27;;;;;;;4.90;3.70;;;6.40;62.90;;;;;;5018624;28;20432;-78
2022/04/17 01:30:56;;;;;;;3.93;3.60;;;6.40;62.80;;;;;;5027632;28;20747;-78
2022/04/17 01:33:23;;;;;;;5.30;3.87;;;6.30;62.90;;;;;;5016432;28;20425;-79
2022/04/17 01:35:49;;;;;;;4.57;3.37;;;6.30;63.40;;;;;;5019485;28;20429;-77
2022/04/17 01:38:15;;;;;;;7.50;4.47;;;6.20;63.80;;;;;;5016295;28;20788;-78
2022/04/17 01:40:41;;;;;;;7.53;3.97;;;6.10;64.10;;;;;;5021405;28;20430;-79
2022/04/17 01:43:08;;;;;;;7.00;4.40;;;6.10;64.40;;;;;;5014862;28;20528;-79
2022/04/17 01:45:34;;;;;;;6.30;4.30;;;6.10;64.40;;;;;;5015022;28;20416;-77
2022/04/17 01:48:00;;;;;;;5.40;4.07;;;6.10;64.70;;;;;;5015165;28;20443;-79
2022/04/17 01:50:27;;;;;;;8.60;4.57;;;6.10;64.50;;;;;;5024997;28;20428;-78
2022/04/17 01:52:53;;;;;;;8.13;4.87;;;6.00;64.80;;;;;;5016836;28;20193;-80
2022/04/17 01:55:20;;;;;;;9.33;4.67;;;5.90;65.30;;;;;;5022193;28;20435;-79
2022/04/17 01:57:45;;;;;;;4.93;3.90;;;5.90;65.60;;;;;;5014229;28;20445;-80
2022/04/17 02:00:12;;;;;;;7.57;4.37;;;5.90;65.70;;;;;;5016923;28;20432;-78
2022/04/17 02:02:37;;;;;;;7.23;4.73;;;5.90;66.00;;;;;;5023475;28;20284;-78
2022/04/17 02:05:04;;;;;;;8.57;5.10;;;5.80;66.00;;;;;;5025431;28;20421;-79
2022/04/17 02:07:29;;;;;;;7.37;4.57;;;5.80;66.30;;;;;;5017792;28;20519;-78
2022/04/17 02:09:55;;;;;;;5.87;4.40;;;5.70;66.70;;;;;;5021749;28;20428;-79
2022/04/17 02:12:22;;;;;;;6.70;4.30;;;5.60;66.90;;;;;;5020316;28;20253;-79
2022/04/17 02:14:48;;;;;;;7.53;4.57;;;5.60;67.20;;;;;;5026604;28;20186;-77
2022/04/17 02:17:14;;;;;;;6.83;4.77;;;5.50;67.50;;;;;;5015014;28;20522;-79
2022/04/17 02:19:39;;;;;;;6.43;4.20;;;5.50;67.70;;;;;;5015374;28;20428;-79
2022/04/17 02:22:05;;;;;;;8.07;4.70;;;5.50;67.70;;;;;;5022170;28;20206;-79
2022/04/17 02:24:32;;;;;;;7.63;4.40;;;5.40;67.60;;;;;;5016676;28;20722;-78
2022/04/17 02:26:58;;;;;;;9.37;4.77;;;5.40;67.90;;;;;;5022568;28;20455;-79
2022/04/17 02:29:24;;;;;;;7.13;4.47;;;5.30;68.00;;;;;;5012827;28;20943;-79
2022/04/17 02:31:49;;;;;;;7.40;4.83;;;5.30;68.00;;;;;;5016518;28;20567;-79
2022/04/17 02:34:15;;;;;;;8.37;4.30;;;5.30;68.20;;;;;;5017235;28;20502;-78
2022/04/17 02:36:41;;;;;;;6.57;4.70;;;5.30;68.30;;;;;;5018173;28;20221;-80
2022/04/17 02:39:07;;;;;;;6.40;4.53;;;5.30;68.50;;;;;;5022552;28;20284;-79
2022/04/17 02:41:32;;;;;;;8.30;4.90;;;5.20;68.60;;;;;;5015315;28;20198;-79
2022/04/17 02:43:58;;;;;;;8.37;5.27;;;5.10;68.60;;;;;;5022667;28;20297;-79
2022/04/17 02:49:08;;;;;;;7.43;5.00;;;5.10;69.10;;;;;;5008451;28;20317;-78
2022/04/17 02:51:34;;;;;;;9.77;5.40;;;5.10;68.80;;;;;;5018985;28;20444;-78
2022/04/17 02:54:00;;;;;;;7.37;5.00;;;5.10;68.90;;;;;;5020479;28;20240;-80
2022/04/17 02:56:26;;;;;;;7.70;5.17;;;5.00;69.50;;;;;;5016970;28;20444;-81
2022/04/17 02:58:54;;;;;;;7.27;5.03;;;5.00;69.40;;;;;;5024573;28;20460;-80
2022/04/17 03:06:54;;;;;;;7.53;5.20;;;4.90;69.90;;;;;;5007293;28;20451;-80
2022/04/17 03:09:19;;;;;;;9.63;5.63;;;4.80;70.20;;;;;;5019640;28;20503;-79
2022/04/17 03:11:45;;;;;;;11.83;5.67;;;4.80;70.10;;;;;;5024971;28;20581;-78
2022/04/17 03:14:11;;;;;;;8.00;5.40;;;4.80;70.20;;;;;;5027034;28;20428;-80
2022/04/17 03:16:37;;;;;;;10.00;5.53;;;4.80;70.40;;;;;;5028006;28;20206;-79
2022/04/17 03:19:02;;;;;;;9.20;5.10;;;4.80;70.40;;;;;;5018161;28;20273;-80
2022/04/17 03:21:28;;;;;;;8.83;5.40;;;4.80;70.40;;;;;;5020768;28;20536;-79
2022/04/17 03:23:54;;;;;;;6.87;5.87;;;4.80;70.70;;;;;;5023086;28;20256;-79
2022/04/17 03:26:20;;;;;;;8.30;5.40;;;4.80;71.00;;;;;;5020688;28;20206;-79
2022/04/17 03:28:46;;;;;;;7.87;5.80;;;4.80;71.00;;;;;;5018643;28;20178;-79
2022/04/17 03:31:11;;;;;;;10.93;5.77;;;4.80;71.00;;;;;;5029094;28;21286;-78
2022/04/17 03:33:37;;;;;;;7.87;5.13;;;4.80;71.40;;;;;;5018112;28;20428;-78
2022/04/17 03:36:03;;;;;;;9.60;4.37;;;4.80;71.40;;;;;;5021814;28;20210;-80
2022/04/17 03:38:29;;;;;;;8.50;5.33;;;4.80;71.70;;;;;;5018250;28;20181;-78
2022/04/17 03:40:55;;;;;;;7.13;5.00;;;4.80;71.40;;;;;;5019488;28;20435;-78
2022/04/17 03:43:23;;;;;;;10.07;5.13;;;4.80;71.70;;;;;;5020525;28;20213;-79
2022/04/17 03:45:49;;;;;;;7.80;5.17;;;4.90;71.70;;;;;;5032032;28;20272;-79
2022/04/17 03:48:18;;;;;;;10.50;5.60;;;4.90;71.40;;;;;;5020698;28;20421;-79
2022/04/17 03:50:47;;;;;;;9.10;5.27;;;4.90;71.60;;;;;;5026251;28;20917;-78
2022/04/17 03:53:13;;;;;;;8.00;4.90;;;4.80;71.70;;;;;;5018817;28;20750;-78
2022/04/17 03:55:39;;;;;;;7.83;5.50;;;4.80;71.80;;;;;;5019060;28;20428;-79
2022/04/17 03:58:05;;;;;;;10.00;5.07;;;4.90;71.70;;;;;;5018055;28;20421;-79
2022/04/17 04:00:31;;;;;;;7.80;5.20;;;4.80;71.80;;;;;;5017876;28;20460;-79
2022/04/17 04:02:57;;;;;;;9.57;6.40;;;4.80;71.70;;;;;;5025909;28;20208;-79
2022/04/17 04:05:22;;;;;;;7.67;5.27;;;4.70;72.00;;;;;;5017189;28;20190;-78
2022/04/17 04:07:48;;;;;;;7.77;5.33;;;4.70;72.30;;;;;;5023201;28;20218;-79
2022/04/17 04:10:15;;;;;;;6.63;4.90;;;4.60;72.40;;;;;;5023955;28;20255;-78
2022/04/17 04:12:40;;;;;;;8.70;6.03;;;4.50;72.60;;;;;;5020067;28;20429;-79
2022/04/17 04:15:07;;;;;;;8.93;5.80;;;4.50;73.00;;;;;;5017947;28;20425;-78
2022/04/17 04:17:34;;;;;;;10.50;5.90;;;4.40;73.30;;;;;;5018514;28;20444;-79
2022/04/17 04:20:00;;;;;;;10.50;6.17;;;4.40;73.30;;;;;;5017675;28;20476;-81
2022/04/17 04:22:25;;;;;;;8.40;5.53;;;4.30;73.50;;;;;;5032023;28;20483;-81
2022/04/17 04:24:51;;;;;;;11.70;5.63;;;4.30;73.70;;;;;;5017376;28;20874;-80
2022/04/17 04:30:02;;;;;;;8.30;5.53;;;4.30;74.30;;;;;;5033047;28;20488;-81
2022/04/17 04:32:28;;;;;;;10.70;6.10;;;4.20;74.60;;;;;;5018374;28;20935;-79
2022/04/17 04:35:00;;;;;;;9.40;5.60;;;4.20;74.80;;;;;;5021134;28;20449;-81
2022/04/17 04:37:26;;;;;;;12.10;6.70;;;4.20;74.80;;;;;;5025455;28;20276;-79
2022/04/17 04:39:52;;;;;;;13.13;7.20;;;4.20;74.90;;;;;;5019186;28;20425;-79
2022/04/17 04:42:20;;;;;;;9.20;6.30;;;4.10;74.60;;;;;;5023437;28;20520;-79
2022/04/17 04:44:47;;;;;;;14.93;6.87;;;4.10;74.50;;;;;;5029973;28;20178;-80
2022/04/17 04:47:13;;;;;;;8.07;5.90;;;4.10;74.60;;;;;;5028684;28;20429;-79
2022/04/17 04:49:39;;;;;;;9.38;5.70;;;4.10;74.60;;;;;;5028231;28;20488;-78
2022/04/17 04:52:06;;;;;;;8.43;5.70;;;4.10;74.50;;;;;;5027467;28;20188;-80
2022/04/17 04:54:32;;;;;;;9.77;5.47;;;4.00;74.60;;;;;;5030499;28;20189;-79
2022/04/17 04:57:00;;;;;;;9.33;5.70;;;4.10;74.50;;;;;;5020443;28;20456;-80
2022/04/17 04:59:26;;;;;;;8.43;5.23;;;4.10;74.30;;;;;;5019485;28;20538;-80
2022/04/17 05:01:52;;;;;;;9.47;5.20;;;4.10;74.20;;;;;;5027783;28;20469;-80
2022/04/17 05:04:20;;;;;;;7.90;5.40;;;4.10;74.00;;;;;;5020282;28;20522;-79
2022/04/17 05:06:46;;;;;;;6.57;5.07;;;4.10;73.70;;;;;;5018093;28;20464;-79
2022/04/17 05:09:12;;;;;;;9.87;5.50;;;4.20;73.90;;;;;;5029201;28;20452;-81
2022/04/17 05:11:38;;;;;;;7.57;5.80;;;4.20;73.90;;;;;;5026818;28;20429;-80
2022/04/17 05:14:11;;;;;;;7.72;5.13;;;4.20;73.90;;;;;;5021244;28;20672;-80
2022/04/17 05:16:37;;;;;;;7.20;5.00;;;4.20;73.90;;;;;;5016621;28;20228;-79
2022/04/17 05:19:21;;;;;;;10.50;5.60;;;4.20;74.00;;;;;;5017843;28;20421;-80
2022/04/17 05:21:52;;;;;;;8.47;5.20;;;4.30;73.90;;;;;;5024445;28;20186;-79
2022/04/17 05:24:17;;;;;;;7.97;4.70;;;4.40;73.70;;;;;;5022004;28;20447;-79
2022/04/17 05:26:43;;;;;;;8.97;5.27;;;4.40;73.50;;;;;;5014921;28;20448;-80
2022/04/17 05:29:09;;;;;;;9.00;5.23;;;4.40;73.30;;;;;;5027384;28;20233;-80
2022/04/17 05:31:35;;;;;;;6.97;5.10;;;4.40;73.20;;;;;;5033805;28;20425;-81
2022/04/17 05:34:01;;;;;;;9.83;5.43;;;4.40;73.30;;;;;;5042888;28;20819;-81
2022/04/17 05:36:27;;;;;;;9.90;4.80;;;4.40;73.30;;;;;;5023445;28;20439;-79
2022/04/17 05:38:53;;;;;;;8.10;5.40;;;4.50;73.50;;;;;;5037542;28;20413;-80
2022/04/17 05:41:22;;;;;;;9.13;5.90;;;4.60;73.30;;;;;;5036602;28;20174;-79
2022/04/17 05:43:49;;;;;;;9.53;5.13;;;4.60;73.20;;;;;;5037018;28;20456;-78
2022/04/17 05:46:14;;;;;;;8.40;5.57;;;4.60;73.20;;;;;;5036566;28;20455;-80
2022/04/17 05:48:40;;;;;;;9.07;5.47;;;4.70;73.20;;;;;;5034837;28;20469;-78
2022/04/17 05:51:07;;;;;;;6.73;4.83;;;4.80;72.40;;;;;;5032381;28;20436;-77
2022/04/17 05:53:33;;;;;;;12.03;5.27;;;4.80;72.40;;;;;;5038354;28;20420;-77
2022/04/17 05:55:59;;;;;;;7.80;5.27;;;4.80;72.30;;;;;;5044275;28;20438;-78
2022/04/17 05:58:25;;;;;;;6.17;4.70;;;4.90;72.10;;;;;;5026715;28;20421;-78
2022/04/17 06:00:50;;;;;;;8.80;5.33;;;5.00;71.40;;;;;;5023603;28;20936;-79
2022/04/17 06:03:16;;;;;;;6.93;5.47;;;5.10;71.10;;;;;;5032166;28;20205;-79
2022/04/17 06:05:42;;;;;;;9.73;6.13;;;5.30;69.90;;;;;;5034905;28;20190;-79
2022/04/17 06:08:08;;;;;;;7.70;5.50;;;5.40;69.20;;;;;;5015354;28;20610;-76
2022/04/17 06:10:34;;;;;;;9.40;5.23;;;5.50;69.20;;;;;;5019453;28;20441;-76
2022/04/17 06:12:59;;;;;;;7.97;5.00;;;5.70;69.10;;;;;;5020111;28;20240;-75
2022/04/17 06:15:25;;;;;;;7.77;5.10;;;5.90;67.70;;;;;;5018749;28;20193;-76
2022/04/17 06:17:51;;;;;;;9.20;4.80;;;6.10;66.60;;;;;;5013784;28;20202;-75
2022/04/17 06:20:17;;;;;;;5.67;4.37;;;6.10;65.00;;;;;;5017401;28;20192;-76
2022/04/17 06:22:43;;;;;;;7.17;4.40;;;6.30;64.10;;;;;;5015901;28;20279;-76
2022/04/17 06:25:11;;;;;;;8.03;4.60;;;6.30;63.80;;;;;;5015631;28;20182;-76
2022/04/17 06:27:37;;;;;;;6.13;4.70;;;6.40;63.50;;;;;;5016127;28;20785;-76
2022/04/17 06:30:12;;;;;;;9.07;4.57;;;6.50;63.50;;;;;;5019390;28;20973;-78
2022/04/17 06:32:39;;;;;;;12.27;8.27;;;6.60;63.50;;;;;;5011094;28;20435;-77
2022/04/17 06:35:06;;;;;;;11.50;6.53;;;6.70;62.20;;;;;;5019287;28;20834;-77
2022/04/17 06:37:44;;;;;;;11.97;6.17;;;6.80;61.70;;;;;;5008952;28;20498;-78
2022/04/17 06:40:10;;;;;;;7.93;4.43;;;6.90;61.30;;;;;;5007979;28;20424;-77
2022/04/17 06:42:36;;;;;;;7.03;4.60;;;7.00;60.90;;;;;;5016097;28;20467;-78
2022/04/17 06:45:01;;;;;;;8.53;5.13;;;7.00;60.90;;;;;;5013111;28;20435;-77
2022/04/17 06:47:30;;;;;;;6.37;4.17;;;7.10;60.70;;;;;;5011691;28;20210;-77
2022/04/17 06:49:56;;;;;;;7.50;4.93;;;7.20;60.30;;;;;;5017872;28;20182;-77
2022/04/17 06:52:22;;;;;;;6.00;4.37;;;7.30;60.00;;;;;;5017788;28;20432;-77
2022/04/17 06:54:48;;;;;;;6.60;4.50;;;7.40;59.20;;;;;;5014840;28;20424;-77
2022/04/17 06:57:14;;;;;;;7.13;4.10;;;7.50;58.90;;;;;;5016147;28;20259;-79
2022/04/17 06:59:40;;;;;;;5.80;4.00;;;7.70;58.40;;;;;;5018280;28;20685;-77
2022/04/17 07:02:06;;;;;;;5.60;3.87;;;7.90;56.50;;;;;;5023333;28;20475;-78
2022/04/17 07:04:31;;;;;;;5.60;3.80;;;8.00;56.00;;;;;;5019633;28;20190;-77
2022/04/17 07:06:57;;;;;;;5.70;3.60;;;8.10;54.20;;;;;;5016839;28;20989;-78
2022/04/17 07:09:23;;;;;;;8.83;4.07;;;8.20;54.80;;;;;;5015231;28;20213;-75
2022/04/17 07:11:49;;;;;;;4.80;3.60;;;8.30;54.10;;;;;;5018066;28;20209;-77
2022/04/17 07:14:15;;;;;;;6.33;3.83;;;8.30;54.20;;;;;;5014523;28;20237;-77
2022/04/17 07:16:43;;;;;;;5.87;3.53;;;8.40;53.40;;;;;;5009506;28;20481;-77
2022/04/17 07:19:09;;;;;;;6.03;3.70;;;8.50;53.30;;;;;;5016050;28;20423;-78
2022/04/17 07:21:35;;;;;;;5.43;3.50;;;8.60;53.30;;;;;;5015200;28;20428;-75
2022/04/17 07:24:02;;;;;;;5.33;3.87;;;8.60;53.80;;;;;;5016214;28;20277;-75
2022/04/17 07:26:28;;;;;;;27.53;12.47;;;8.70;52.20;;;;;;5015170;28;20433;-75
2022/04/17 07:28:53;;;;;;;7.30;4.27;;;8.60;52.20;;;;;;5017725;28;20420;-75
2022/04/17 07:31:19;;;;;;;9.43;5.90;;;8.70;52.50;;;;;;5019299;28;20812;-75
2022/04/17 07:33:45;;;;;;;8.90;4.90;;;8.80;52.00;;;;;;5014236;28;20189;-75
2022/04/17 07:36:11;;;;;;;8.27;4.57;;;8.80;52.50;;;;;;5017467;28;20198;-75
2022/04/17 07:38:37;;;;;;;4.40;3.07;;;9.00;51.70;;;;;;5015918;28;20427;-76
2022/04/17 07:41:03;;;;;;;5.00;4.03;;;9.00;50.70;;;;;;5013509;28;20582;-74
2022/04/17 07:43:29;;;;;;;6.17;3.73;;;9.10;50.30;;;;;;5013988;28;20275;-76
2022/04/17 07:45:54;;;;;;;4.10;3.30;;;9.20;49.40;;;;;;5017875;28;20893;-78
2022/04/17 07:48:20;;;;;;;4.60;3.43;;;9.20;49.40;;;;;;5015221;28;20173;-77
2022/04/17 07:50:46;;;;;;;5.43;3.70;;;9.30;49.40;;;;;;5011673;28;20186;-75
2022/04/17 07:53:12;;;;;;;6.03;3.57;;;9.30;48.10;;;;;;5014324;28;20911;-78
2022/04/17 07:55:39;;;;;;;5.20;2.90;;;9.30;47.90;;;;;;5016687;28;20238;-77
2022/04/17 07:58:22;;;;;;;5.70;3.43;;;9.40;47.80;;;;;;5014212;28;20424;-78
2022/04/17 08:00:57;;;;;;;5.00;3.40;;;9.50;47.70;;;;;;5021429;28;20777;-76
2022/04/17 08:03:35;;;;;;;3.93;3.10;;;9.60;47.30;;;;;;5016637;28;20472;-75
2022/04/17 08:06:02;;;;;;;5.43;3.40;;;9.60;47.30;;;;;;5015632;28;20433;-75
2022/04/17 08:08:28;;;;;;;6.53;3.70;;;9.60;47.00;;;;;;5015704;28;20433;-75
2022/04/17 08:10:54;;;;;;;5.93;3.50;;;9.60;47.00;;;;;;5015117;28;20861;-75
2022/04/17 08:13:20;;;;;;;4.90;3.50;;;9.70;47.00;;;;;;5014339;28;20290;-75
2022/04/17 08:15:46;;;;;;;7.63;3.90;;;9.70;47.00;;;;;;5015486;28;20461;-77
2022/04/17 08:18:14;;;;;;;5.67;3.53;;;9.90;47.00;;;;;;5017784;28;20204;-78
2022/04/17 08:20:40;;;;;;;4.70;3.50;;;9.90;46.30;;;;;;5030339;28;20429;-75
2022/04/17 08:23:05;;;;;;;8.80;3.63;;;10.00;46.50;;;;;;5018794;28;20581;-75
2022/04/17 08:25:33;;;;;;;4.73;3.50;;;10.00;46.20;;;;;;5013242;28;20324;-76
2022/04/17 08:27:58;;;;;;;3.50;3.07;;;10.00;45.30;;;;;;5016091;28;20198;-75
2022/04/17 08:30:26;;;;;;;5.53;3.60;;;10.00;44.90;;;;;;5020291;28;20504;-78
2022/04/17 08:32:53;;;;;;;4.63;3.10;;;10.00;45.50;;;;;;5013848;28;20186;-75
2022/04/17 08:35:19;;;;;;;5.63;3.50;;;10.10;45.40;;;;;;5016804;28;20428;-79
2022/04/17 08:37:45;;;;;;;6.30;4.07;;;10.20;44.70;;;;;;5015127;28;20507;-78
2022/04/17 08:40:12;;;;;;;5.87;3.87;;;10.30;44.60;;;;;;5017361;28;20888;-78
2022/04/17 08:42:39;;;;;;;8.27;5.67;;;10.30;44.90;;;;;;5022849;28;20468;-76
2022/04/17 08:45:07;;;;;;;6.00;3.80;;;10.40;44.70;;;;;;5018256;28;20428;-75
2022/04/17 08:47:34;;;;;;;5.97;4.20;;;10.50;45.70;;;;;;5015861;28;20559;-76
2022/04/17 08:50:00;;;;;;;5.37;3.70;;;10.50;45.70;;;;;;5019751;28;20499;-79
2022/04/17 08:52:30;;;;;;;4.00;2.80;;;10.60;45.40;;;;;;5022711;28;20432;-75
2022/04/17 08:54:59;;;;;;;4.67;3.47;;;10.80;45.70;;;;;;5019088;28;20436;-76
2022/04/17 08:57:25;;;;;;;8.03;3.70;;;10.90;43.50;;;;;;5022634;28;20667;-76
2022/04/17 08:59:51;;;;;;;4.73;2.57;;;11.00;42.40;;;;;;5017583;28;20541;-76
2022/04/17 09:02:18;;;;;;;3.90;3.03;;;11.00;42.40;;;;;;5013169;28;20464;-74
2022/04/17 09:04:45;;;;;;;4.47;3.23;;;11.10;43.10;;;;;;5014096;28;20189;-75
2022/04/17 09:07:12;;;;;;;5.60;3.10;;;11.20;43.10;;;;;;5015802;28;20498;-78
2022/04/17 09:09:52;;;;;;;4.90;3.10;;;11.20;43.20;;;;;;5029338;28;20438;-78
2022/04/17 09:12:19;;;;;;;5.23;2.90;;;11.30;42.00;;;;;;5012237;28;20420;-76
2022/04/17 09:14:45;;;;;;;3.87;2.90;;;11.30;42.20;;;;;;5012131;28;20444;-75
2022/04/17 09:17:11;;;;;;;4.33;2.70;;;11.40;41.80;;;;;;5011610;28;20461;-76
2022/04/17 09:19:37;;;;;;;4.10;2.53;;;11.40;41.80;;;;;;5016522;28;20545;-76
2022/04/17 09:22:05;;;;;;;5.63;3.07;;;11.50;42.00;;;;;;5012000;28;20470;-76
2022/04/17 09:24:38;;;;;;;4.70;3.03;;;11.60;41.00;;;;;;5028527;28;20428;-76
2022/04/17 09:27:06;;;;;;;4.13;2.70;;;11.60;41.10;;;;;;5012191;28;20436;-76
2022/04/17 09:29:36;;;;;;;3.80;2.70;;;11.60;41.40;;;;;;5020187;28;20439;-78
2022/04/17 09:32:07;;;;;;;4.93;3.30;;;11.50;41.60;;;;;;5012833;28;20435;-76
2022/04/17 09:34:50;;;;;;;7.83;5.87;;;11.70;41.60;;;;;;5018699;28;20436;-76
2022/04/17 09:37:18;;;;;;;6.30;4.30;;;11.80;41.50;;;;;;5012597;28;20455;-78
2022/04/17 09:39:45;;;;;;;17.37;8.70;;;11.80;41.10;;;;;;5011682;28;21371;-77
2022/04/17 09:42:11;;;;;;;5.97;4.17;;;11.80;41.10;;;;;;5018599;28;21072;-75
2022/04/17 09:44:47;;;;;;;12.20;5.47;;;11.90;41.10;;;;;;5012196;28;20432;-77
2022/04/17 09:47:21;;;;;;;4.77;3.50;;;11.90;41.00;;;;;;5004458;28;20815;-78
2022/04/17 09:49:58;;;;;;;4.60;2.87;;;11.90;40.80;;;;;;5013939;28;20420;-79
2022/04/17 09:52:40;;;;;;;4.00;2.67;;;11.90;40.60;;;;;;5011137;28;20439;-78
2022/04/17 09:55:06;;;;;;;3.77;2.80;;;11.90;40.60;;;;;;5010029;28;20417;-75
2022/04/17 09:57:37;;;;;;;6.27;3.20;;;12.00;40.80;;;;;;5008932;28;20452;-77
2022/04/17 10:00:06;;;;;;;6.00;3.80;;;12.20;40.80;;;;;;5008523;28;20437;-76
2022/04/17 10:02:33;;;;;;;5.30;2.80;;;12.20;40.60;;;;;;5013134;28;20479;-76
2022/04/17 10:05:00;;;;;;;5.17;3.37;;;12.30;40.30;;;;;;5017509;28;20421;-76
2022/04/17 10:07:27;;;;;;;7.23;2.80;;;12.30;40.40;;;;;;5009684;28;20472;-75
2022/04/17 10:09:53;;;;;;;5.13;3.17;;;12.30;40.60;;;;;;5018247;28;20425;-77
2022/04/17 10:12:20;;;;;;;3.90;2.60;;;12.30;40.70;;;;;;5015867;28;20486;-77
2022/04/17 10:14:50;;;;;;;10.63;3.80;;;12.40;40.80;;;;;;5012115;28;20193;-75
2022/04/17 10:17:20;;;;;;;3.77;2.57;;;12.60;41.00;;;;;;5011019;28;20750;-75
2022/04/17 10:19:50;;;;;;;3.53;2.67;;;12.60;41.10;;;;;;5014255;28;20857;-77
2022/04/17 10:22:21;;;;;;;5.60;3.20;;;12.70;40.40;;;;;;5018126;28;20470;-76
2022/04/17 10:24:54;;;;;;;5.00;2.60;;;12.70;40.60;;;;;;5010046;28;20425;-76
2022/04/17 10:27:26;;;;;;;2.97;2.30;;;12.70;39.90;;;;;;5009548;28;21301;-77
2022/04/17 10:30:15;;;;;;;2.70;2.40;;;12.50;40.30;;;;;;5008499;28;20433;-77
2022/04/17 10:33:08;;;;;;;3.87;2.30;;;12.60;40.80;;;;;;5012564;28;21294;-77
2022/04/17 10:35:59;;;;;;;3.60;2.50;;;12.70;40.40;;;;;;5019920;28;20511;-77
2022/04/17 10:38:31;;;;;;;5.90;2.83;;;12.90;40.40;;;;;;5014909;28;20792;-78
2022/04/17 10:41:08;;;;;;;6.20;2.60;;;12.90;39.60;;;;;;5010562;28;20420;-75
2022/04/17 10:43:53;;;;;;;6.47;2.30;;;13.10;39.60;;;;;;5017029;28;20497;-77
2022/04/17 10:46:21;;;;;;;7.47;2.63;;;13.30;39.00;;;;;;5027366;28;20969;-76
2022/04/17 10:48:55;;;;;;;2.57;1.90;;;13.40;37.60;;;;;;5023960;28;20452;-76
2022/04/17 10:51:26;;;;;;;5.63;2.67;;;13.80;37.40;;;;;;5022741;28;20417;-77
2022/04/17 10:54:05;;;;;;;4.30;2.70;;;14.30;36.20;;;;;;5011569;28;20471;-78
2022/04/17 10:57:02;;;;;;;3.57;2.30;;;14.60;35.30;;;;;;5014732;28;20540;-76
2022/04/17 10:59:34;;;;;;;4.67;2.27;;;14.60;35.50;;;;;;5011205;28;20945;-77
2022/04/17 11:02:04;;;;;;;3.70;2.60;;;14.80;35.30;;;;;;5014802;28;20453;-76
2022/04/17 11:04:50;;;;;;;7.70;3.43;;;14.80;34.70;;;;;;5014917;28;20484;-75
2022/04/17 11:07:15;;;;;;;6.33;3.70;;;14.70;34.10;;;;;;5018678;28;20460;-76
2022/04/17 11:09:46;;;;;;;3.47;2.37;;;14.80;33.20;;;;;;5012872;28;20807;-76
2022/04/17 11:12:18;;;;;;;6.93;3.53;;;14.80;32.40;;;;;;5017410;28;20593;-76
2022/04/17 11:15:02;;;;;;;5.80;4.23;;;15.10;33.60;;;;;;5021010;28;20439;-76
2022/04/17 11:17:32;;;;;;;3.73;2.13;;;15.00;32.80;;;;;;5023458;28;20448;-76
2022/04/17 11:19:59;;;;;;;6.30;2.90;;;14.90;33.20;;;;;;5015757;28;20841;-74
2022/04/17 11:22:27;;;;;;;3.87;2.60;;;14.70;33.10;;;;;;5017111;28;20546;-76
2022/04/17 11:24:57;;;;;;;2.67;2.40;;;14.90;33.20;;;;;;5009501;28;20429;-76
2022/04/17 11:27:31;;;;;;;4.00;2.20;;;15.20;32.30;;;;;;5019814;28;20566;-76
2022/04/17 11:29:58;;;;;;;3.70;2.20;;;15.60;32.80;;;;;;5008659;28;20419;-77
2022/04/17 11:32:27;;;;;;;3.60;2.00;;;16.10;31.90;;;;;;5026444;28;20445;-77
2022/04/17 11:34:54;;;;;;;2.73;2.37;;;16.50;29.80;;;;;;5025544;28;20543;-75
2022/04/17 11:37:26;;;;;;;2.57;1.97;;;16.20;30.40;;;;;;5025292;28;20460;-76
2022/04/17 11:39:54;;;;;;;4.23;3.40;;;16.00;30.30;;;;;;5011063;28;20429;-75
2022/04/17 11:42:19;;;;;;;2.67;2.10;;;16.00;30.30;;;;;;5028335;28;20525;-75
2022/04/17 11:44:48;;;;;;;3.77;2.53;;;15.70;30.40;;;;;;5018174;28;20424;-77
2022/04/17 11:47:18;;;;;;;6.37;2.37;;;15.60;31.10;;;;;;5020619;28;20193;-78
2022/04/17 11:49:45;;;;;;;7.33;2.43;;;15.90;31.60;;;;;;5016195;28;20512;-75
2022/04/17 11:52:13;;;;;;;3.90;2.30;;;16.10;30.70;;;;;;5013686;28;20421;-74
2022/04/17 11:54:40;;;;;;;2.10;2.00;;;16.20;30.10;;;;;;5015809;28;20425;-79
2022/04/17 11:57:06;;;;;;;3.30;2.13;;;16.00;29.50;;;;;;5025171;28;20449;-78
2022/04/17 11:59:48;;;;;;;4.60;2.37;;;16.30;29.40;;;;;;5019561;28;20419;-78
2022/04/17 12:02:16;;;;;;;3.63;2.20;;;16.00;29.10;;;;;;5014668;28;20859;-79
2022/04/17 12:04:43;;;;;;;3.40;2.40;;;15.80;29.90;;;;;;5020257;28;20425;-80
2022/04/17 12:07:14;;;;;;;2.50;2.33;;;15.70;30.80;;;;;;5017247;28;20491;-78
2022/04/17 12:09:40;;;;;;;2.37;1.83;;;15.60;31.20;;;;;;5015180;28;20820;-79
2022/04/17 12:12:17;;;;;;;3.30;2.50;;;15.60;31.60;;;;;;5017594;28;20424;-78
2022/04/17 12:14:45;;;;;;;7.10;2.87;;;15.70;31.20;;;;;;5022339;28;20443;-78
2022/04/17 12:17:11;;;;;;;4.17;2.67;;;15.60;31.70;;;;;;5020147;28;20445;-79
2022/04/17 12:19:37;;;;;;;2.93;2.13;;;15.40;31.30;;;;;;5023697;28;20435;-77
2022/04/17 12:22:13;;;;;;;4.03;2.47;;;15.50;32.00;;;;;;5023388;28;20413;-78
2022/04/17 12:24:43;;;;;;;5.77;2.47;;;15.80;32.00;;;;;;5013180;28;20189;-78
2022/04/17 12:27:24;;;;;;;3.17;2.30;;;16.10;31.10;;;;;;5019242;28;20495;-79
2022/04/17 12:29:52;;;;;;;4.07;2.30;;;16.20;30.70;;;;;;5014518;28;20501;-79
2022/04/17 12:32:22;;;;;;;4.27;2.10;;;16.30;31.10;;;;;;5020319;28;20931;-78
2022/04/17 12:35:03;;;;;;;4.17;2.17;;;16.70;29.90;;;;;;5015097;28;20428;-78
2022/04/17 12:37:34;;;;;;;3.40;2.40;;;16.60;30.10;;;;;;5016861;28;20450;-78
2022/04/17 12:40:11;;;;;;;3.17;2.33;;;16.50;30.80;;;;;;5016396;28;20428;-80
2022/04/17 12:42:38;;;;;;;2.57;2.10;;;16.30;30.70;;;;;;5016525;28;20923;-77
2022/04/17 12:45:08;;;;;;;2.67;2.10;;;16.40;30.10;;;;;;5014754;28;20421;-78
2022/04/17 12:47:36;;;;;;;4.57;2.27;;;16.40;29.90;;;;;;5014064;28;21018;-76
2022/04/17 12:50:11;;;;;;;4.80;2.30;;;16.30;30.40;;;;;;5017960;28;20915;-78
2022/04/17 12:52:37;;;;;;;4.20;2.40;;;16.30;30.70;;;;;;5016163;28;20485;-78
2022/04/17 12:55:12;;;;;;;3.97;3.00;;;16.70;30.80;;;;;;5018051;28;20483;-79
2022/04/17 12:57:39;;;;;;;4.67;2.50;;;17.10;30.10;;;;;;5013545;28;20460;-77
2022/04/17 13:00:15;;;;;;;2.60;1.70;;;17.50;29.90;;;;;;5018839;28;20432;-78
2022/04/17 13:02:42;;;;;;;3.73;2.00;;;17.90;29.10;;;;;;5020555;28;20544;-77
2022/04/17 13:05:08;;;;;;;2.83;1.87;;;17.90;26.10;;;;;;5020471;28;20417;-79
2022/04/17 13:07:35;;;;;;;3.00;2.10;;;17.70;25.90;;;;;;5025644;28;20476;-79
2022/04/17 13:10:04;;;;;;;4.17;2.30;;;17.60;26.70;;;;;;5021962;28;20440;-78